Time;durP1;ratioP1;P1;durP2;ratioP2;P2;SDS_P1;SDS_P2;PMS_P1;PMS_P2;Temp;Humidity;BMP_temperature;BMP_pressure;BME280_temperature;BME280_humidity;BME280_pressure;Samples;Min_cycle;Max_cycle;Signal;HPM_P1;HPM_P2
2023/07/22 00:00:48;;;;;;;6.47;3.00;;;;;;;12.56;100.00;98783.34;5034770;28;20446;-74
2023/07/22 00:03:13;;;;;;;7.22;2.72;;;;;;;12.44;100.00;98780.47;5036319;28;20030;-75
2023/07/22 00:05:42;;;;;;;5.70;2.70;;;;;;;12.46;100.00;98778.38;5035373;28;20048;-74
2023/07/22 00:08:07;;;;;;;4.82;2.92;;;;;;;12.54;100.00;98799.84;5051699;28;20056;-74
2023/07/22 00:10:33;;;;;;;5.03;2.95;;;;;;;12.55;100.00;98795.22;5035698;28;20375;-74
2023/07/22 00:12:58;;;;;;;6.90;3.38;;;;;;;12.47;100.00;98797.16;5030060;28;20021;-75
2023/07/22 00:15:25;;;;;;;9.48;3.35;;;;;;;12.49;100.00;98795.03;5031253;28;20040;-74
2023/07/22 00:17:50;;;;;;;4.10;2.78;;;;;;;12.45;100.00;98803.84;5031431;28;20018;-75
2023/07/22 00:20:16;;;;;;;8.30;2.67;;;;;;;12.40;100.00;98809.09;5024071;28;20032;-75
2023/07/22 00:22:42;;;;;;;7.25;2.95;;;;;;;12.28;100.00;98789.91;5035208;28;20491;-75
2023/07/22 00:25:12;;;;;;;3.20;2.50;;;;;;;12.45;100.00;98810.09;5032510;28;20041;-76
2023/07/22 00:27:38;;;;;;;7.20;3.03;;;;;;;12.42;100.00;98815.97;5023900;28;20393;-74
2023/07/22 00:30:07;;;;;;;5.43;2.90;;;;;;;12.48;100.00;98811.56;5033587;28;20135;-76
2023/07/22 00:32:32;;;;;;;6.85;2.95;;;;;;;12.50;100.00;98813.00;5032561;28;20025;-75
2023/07/22 00:34:58;;;;;;;4.90;2.53;;;;;;;12.58;100.00;98814.66;5034250;28;20029;-75
2023/07/22 00:37:23;;;;;;;3.80;2.67;;;;;;;12.52;100.00;98792.94;5044300;28;20017;-75
2023/07/22 00:39:49;;;;;;;4.07;2.78;;;;;;;12.58;100.00;98802.97;5034335;28;20441;-75
2023/07/22 00:42:14;;;;;;;4.80;2.90;;;;;;;12.52;100.00;98791.06;5050870;28;20028;-75
2023/07/22 00:44:39;;;;;;;3.92;2.25;;;;;;;12.67;100.00;98802.47;5034678;28;20057;-75
2023/07/22 00:47:05;;;;;;;5.72;2.63;;;;;;;12.71;100.00;98802.91;5034105;28;20041;-75
2023/07/22 00:49:31;;;;;;;9.57;2.60;;;;;;;12.68;100.00;98787.00;5036965;28;20104;-75
2023/07/22 00:52:04;;;;;;;4.50;2.58;;;;;;;12.87;100.00;98796.13;5035027;28;20393;-75
2023/07/22 00:54:30;;;;;;;3.45;2.42;;;;;;;12.85;100.00;98790.06;5035409;28;20021;-75
2023/07/22 00:56:56;;;;;;;4.25;2.10;;;;;;;12.96;100.00;98800.22;5035179;28;20029;-75
2023/07/22 00:59:22;;;;;;;3.35;2.30;;;;;;;12.86;100.00;98784.44;5032902;28;20033;-75
2023/07/22 01:01:47;;;;;;;4.65;2.40;;;;;;;12.88;100.00;98790.44;5031999;28;20532;-75
2023/07/22 01:04:15;;;;;;;4.00;2.50;;;;;;;12.82;100.00;98782.38;5029518;28;20498;-75
2023/07/22 01:06:43;;;;;;;3.97;2.47;;;;;;;12.95;100.00;98785.00;5033425;28;20018;-75
2023/07/22 01:09:09;;;;;;;9.77;2.65;;;;;;;12.89;100.00;98784.00;5034267;28;20029;-75
2023/07/22 01:11:34;;;;;;;13.95;2.70;;;;;;;13.01;100.00;98786.00;5033969;28;20021;-75
2023/07/22 01:14:00;;;;;;;6.88;2.08;;;;;;;12.90;100.00;98782.09;5031801;28;20021;-75
2023/07/22 01:16:26;;;;;;;7.72;2.42;;;;;;;12.74;100.00;98764.44;5030937;28;20053;-75
2023/07/22 01:18:53;;;;;;;6.78;2.60;;;;;;;12.61;100.00;98768.06;5037713;28;20453;-75
2023/07/22 01:21:20;;;;;;;5.90;2.50;;;;;;;12.54;100.00;98777.28;5053045;28;20459;-75
2023/07/22 01:23:47;;;;;;;8.88;2.30;;;;;;;12.24;100.00;98748.84;5038832;28;20029;-75
2023/07/22 01:26:12;;;;;;;3.35;2.38;;;;;;;12.33;100.00;98762.97;5035872;28;20036;-75
2023/07/22 01:28:38;;;;;;;5.20;2.60;;;;;;;12.28;100.00;98770.94;5049973;22;20123;-75
2023/07/22 01:31:05;;;;;;;6.20;2.30;;;;;;;12.22;100.00;98782.66;5029773;28;20029;-75
2023/07/22 01:33:30;;;;;;;3.38;2.65;;;;;;;12.21;100.00;98786.44;5027833;28;20487;-73
2023/07/22 01:35:56;;;;;;;6.07;2.40;;;;;;;12.17;100.00;98798.72;5033068;28;20064;-74
2023/07/22 01:38:21;;;;;;;4.43;2.55;;;;;;;11.99;100.00;98780.44;5030945;28;20084;-73
2023/07/22 01:40:47;;;;;;;6.03;2.78;;;;;;;11.88;100.00;98779.22;5032372;28;20033;-74
2023/07/22 01:43:13;;;;;;;5.20;2.97;;;;;;;11.85;100.00;98779.59;5033582;28;20025;-74
2023/07/22 01:45:39;;;;;;;6.30;2.95;;;;;;;11.79;100.00;98789.44;5031883;28;20025;-74
2023/07/22 01:48:06;;;;;;;4.60;2.45;;;;;;;11.73;100.00;98778.59;5033688;28;20086;-73
2023/07/22 01:50:31;;;;;;;6.75;2.65;;;;;;;11.72;100.00;98785.06;5027713;28;20112;-74
2023/07/22 01:52:56;;;;;;;7.50;2.53;;;;;;;11.71;100.00;98789.66;5026432;28;20048;-74
2023/07/22 01:55:22;;;;;;;7.65;3.05;;;;;;;11.73;100.00;98778.59;5030685;28;20062;-73
2023/07/22 01:57:47;;;;;;;5.82;3.08;;;;;;;11.72;100.00;98777.75;5029142;28;20483;-73
2023/07/22 02:00:14;;;;;;;4.70;3.00;;;;;;;11.75;100.00;98790.06;5024253;28;20029;-73
2023/07/22 02:02:41;;;;;;;10.13;2.85;;;;;;;11.77;100.00;98779.84;5030566;28;20548;-73
2023/07/22 02:05:06;;;;;;;5.78;2.70;;;;;;;11.74;100.00;98799.25;5032959;28;20104;-73
2023/07/22 02:07:32;;;;;;;6.88;3.13;;;;;;;11.77;100.00;98791.50;5020735;28;20575;-73
2023/07/22 02:09:58;;;;;;;6.13;3.78;;;;;;;11.78;100.00;98792.34;5032194;28;20029;-74
2023/07/22 02:12:23;;;;;;;4.28;3.00;;;;;;;11.84;100.00;98789.63;5032147;28;20109;-74
2023/07/22 02:14:48;;;;;;;5.18;3.30;;;;;;;11.94;100.00;98797.31;5025618;28;20033;-73
2023/07/22 02:17:13;;;;;;;3.80;2.80;;;;;;;11.95;100.00;98792.75;5028037;28;20029;-73
2023/07/22 02:19:39;;;;;;;8.93;3.30;;;;;;;12.07;100.00;98801.88;5030836;28;20032;-73
2023/07/22 02:22:04;;;;;;;9.20;3.22;;;;;;;12.10;100.00;98800.63;5029071;28;20029;-73
2023/07/22 02:24:30;;;;;;;4.18;2.72;;;;;;;12.15;100.00;98811.66;5027427;28;20021;-73
2023/07/22 02:26:55;;;;;;;6.13;3.15;;;;;;;12.13;100.00;98811.03;5031678;28;20479;-74
2023/07/22 02:29:21;;;;;;;4.57;2.70;;;;;;;12.05;100.00;98806.69;5031215;28;20063;-73
2023/07/22 02:31:46;;;;;;;4.07;3.10;;;;;;;12.11;100.00;98807.75;5026287;28;20029;-73
2023/07/22 02:34:11;;;;;;;4.38;3.20;;;;;;;11.98;100.00;98798.59;5020517;28;20398;-73
2023/07/22 02:36:37;;;;;;;5.07;3.00;;;;;;;11.99;100.00;98802.13;5029095;28;20387;-73
2023/07/22 02:39:03;;;;;;;4.80;3.50;;;;;;;12.01;100.00;98806.28;5030713;28;20072;-73
2023/07/22 02:41:28;;;;;;;5.18;2.95;;;;;;;11.92;100.00;98804.88;5021545;28;20036;-73
2023/07/22 02:43:53;;;;;;;3.78;2.70;;;;;;;11.76;100.00;98797.97;5017285;28;20104;-73
2023/07/22 02:46:19;;;;;;;9.30;3.20;;;;;;;11.82;100.00;98799.00;5028359;28;20053;-73
2023/07/22 02:48:44;;;;;;;4.75;2.95;;;;;;;11.69;100.00;98799.03;5027217;28;20031;-73
2023/07/22 02:51:12;;;;;;;9.70;3.28;;;;;;;11.72;100.00;98799.44;5028738;28;20013;-73
2023/07/22 02:53:38;;;;;;;4.80;3.20;;;;;;;11.73;100.00;98809.22;5022776;28;20033;-75
2023/07/22 02:56:07;;;;;;;5.43;2.75;;;;;;;11.74;100.00;98815.50;5030392;28;20040;-73
2023/07/22 02:58:33;;;;;;;6.53;3.40;;;;;;;11.62;100.00;98805.28;5025460;28;20398;-73
2023/07/22 03:00:58;;;;;;;6.13;3.13;;;;;;;11.63;100.00;98803.41;5031699;28;20552;-74
2023/07/22 03:03:24;;;;;;;4.88;3.03;;;;;;;11.48;100.00;98800.09;5030488;28;20064;-74
2023/07/22 03:05:49;;;;;;;8.43;2.22;;;;;;;11.44;100.00;98793.41;5032551;28;20037;-73
2023/07/22 03:08:15;;;;;;;5.05;2.70;;;;;;;11.44;100.00;98812.38;5026336;28;20026;-73
2023/07/22 03:10:41;;;;;;;6.88;2.95;;;;;;;11.37;100.00;98798.81;5026572;28;20057;-73
2023/07/22 03:13:07;;;;;;;9.77;3.40;;;;;;;11.40;100.00;98801.97;5030070;28;20447;-73
2023/07/22 03:15:32;;;;;;;4.60;3.15;;;;;;;11.25;100.00;98786.97;5029636;28;20112;-73
2023/07/22 03:17:59;;;;;;;7.32;3.22;;;;;;;11.22;100.00;98781.97;5025423;28;20105;-73
2023/07/22 03:20:25;;;;;;;6.15;3.05;;;;;;;11.14;100.00;98794.66;5025985;28;20396;-74
2023/07/22 03:22:51;;;;;;;4.70;3.22;;;;;;;11.07;100.00;98790.28;5029037;28;20017;-73
2023/07/22 03:25:17;;;;;;;6.28;3.38;;;;;;;11.16;100.00;98795.31;5025752;28;20026;-73
2023/07/22 03:27:44;;;;;;;9.35;3.65;;;;;;;11.25;100.00;98795.09;5027954;28;20487;-73
2023/07/22 03:30:14;;;;;;;7.43;4.18;;;;;;;11.36;100.00;98791.75;5021325;28;20079;-76
2023/07/22 03:32:44;;;;;;;6.47;3.53;;;;;;;11.35;100.00;98792.81;5024445;28;20077;-74
2023/07/22 03:35:10;;;;;;;5.70;2.95;;;;;;;11.29;100.00;98799.03;5032501;28;20475;-73
2023/07/22 03:37:36;;;;;;;5.47;3.15;;;;;;;11.13;100.00;98790.31;5030776;28;20051;-74
2023/07/22 03:40:03;;;;;;;4.53;2.95;;;;;;;11.05;100.00;98793.19;5017823;28;20546;-74
2023/07/22 03:42:29;;;;;;;9.00;3.10;;;;;;;11.04;100.00;98801.53;5024841;28;20037;-73
2023/07/22 03:44:54;;;;;;;4.93;3.10;;;;;;;10.96;100.00;98795.28;5032250;28;20356;-73
2023/07/22 03:47:19;;;;;;;7.68;3.08;;;;;;;11.07;100.00;98804.66;5029763;28;20032;-73
2023/07/22 03:49:45;;;;;;;4.60;2.90;;;;;;;11.19;100.00;98802.19;5022561;28;20017;-73
2023/07/22 03:52:14;;;;;;;11.20;3.58;;;;;;;11.24;100.00;98806.94;5031194;28;20116;-73
2023/07/22 03:54:39;;;;;;;7.75;3.10;;;;;;;11.28;100.00;98803.63;5023482;28;20033;-73
2023/07/22 03:57:04;;;;;;;4.80;3.10;;;;;;;11.32;100.00;98798.66;5019844;28;20040;-73
2023/07/22 03:59:30;;;;;;;4.20;2.75;;;;;;;11.38;100.00;98808.63;5031293;28;20033;-73
2023/07/22 04:01:55;;;;;;;9.57;3.03;;;;;;;11.33;100.00;98800.31;5031413;28;20549;-74
2023/07/22 04:04:20;;;;;;;4.20;2.67;;;;;;;11.38;100.00;98816.75;5033490;28;20111;-73
2023/07/22 04:06:45;;;;;;;4.60;2.70;;;;;;;11.46;100.00;98813.84;5031486;28;20021;-73
2023/07/22 04:09:11;;;;;;;5.45;2.97;;;;;;;11.37;100.00;98813.22;5022885;28;20053;-75
2023/07/22 04:11:36;;;;;;;4.68;3.20;;;;;;;11.33;100.00;98794.88;5022730;28;20040;-77
2023/07/22 04:14:02;;;;;;;2.95;2.42;;;;;;;11.39;100.00;98794.03;5031073;28;20032;-77
2023/07/22 04:16:29;;;;;;;4.63;2.78;;;;;;;11.43;100.00;98797.19;5031312;28;20035;-76
2023/07/22 04:18:54;;;;;;;4.15;2.40;;;;;;;11.53;100.00;98803.84;5034694;28;20386;-76
2023/07/22 04:21:20;;;;;;;5.13;3.00;;;;;;;11.63;100.00;98796.13;5034791;28;20128;-76
2023/07/22 04:23:45;;;;;;;6.03;3.17;;;;;;;11.73;100.00;98802.97;5032568;28;20018;-78
2023/07/22 04:26:10;;;;;;;6.07;2.83;;;;;;;11.81;100.00;98795.44;5027681;28;20025;-77
2023/07/22 04:28:36;;;;;;;8.00;2.88;;;;;;;11.85;100.00;98798.59;5024316;28;20033;-76
2023/07/22 04:31:02;;;;;;;9.88;3.90;;;;;;;11.89;100.00;98793.59;5030159;28;20062;-76
2023/07/22 04:33:28;;;;;;;6.30;2.67;;;;;;;12.00;100.00;98801.91;5030427;28;20030;-77
2023/07/22 04:35:58;;;;;;;7.90;2.88;;;;;;;12.17;100.00;98801.44;5031190;28;20032;-78
2023/07/22 04:38:24;;;;;;;4.90;2.63;;;;;;;12.18;100.00;98793.13;5026630;28;20124;-77
2023/07/22 04:40:50;;;;;;;6.43;2.67;;;;;;;12.30;100.00;98790.53;5033632;28;20053;-78
2023/07/22 04:43:16;;;;;;;5.25;2.40;;;;;;;12.36;100.00;98783.44;5029650;28;20045;-77
2023/07/22 04:45:44;;;;;;;6.05;2.47;;;;;;;12.55;100.00;98787.09;5029895;28;20116;-77
2023/07/22 04:48:10;;;;;;;6.75;2.83;;;;;;;12.57;100.00;98768.72;5028333;28;20022;-76
2023/07/22 04:50:37;;;;;;;5.78;2.78;;;;;;;12.74;100.00;98774.47;5033985;28;20033;-77
2023/07/22 04:53:02;;;;;;;3.38;2.38;;;;;;;12.86;100.00;98779.00;5030338;28;20018;-78
2023/07/22 04:55:29;;;;;;;3.75;2.53;;;;;;;12.96;100.00;98767.63;5031199;28;20033;-79
2023/07/22 04:57:55;;;;;;;3.25;1.95;;;;;;;13.09;100.00;98758.56;5027214;28;20028;-78
2023/07/22 05:00:20;;;;;;;3.88;2.25;;;;;;;13.29;100.00;98767.41;5046050;28;20037;-78
2023/07/22 05:02:49;;;;;;;3.92;2.25;;;;;;;13.48;100.00;98772.91;5053072;28;20029;-78
2023/07/22 05:05:15;;;;;;;4.07;2.43;;;;;;;13.64;100.00;98771.50;5054365;28;20030;-77
2023/07/22 05:07:42;;;;;;;4.55;2.40;;;;;;;13.86;100.00;98771.91;5054147;28;20272;-79
2023/07/22 05:10:12;;;;;;;3.92;2.15;;;;;;;14.00;100.00;98762.56;5050529;28;20026;-79
2023/07/22 05:12:40;;;;;;;;;;;;;;;14.12;100.00;98758.03;5053378;28;20101;-78
2023/07/22 05:15:07;;;;;;;5.90;2.95;;;;;;;14.16;100.00;98752.94;5031926;28;19913;-75
2023/07/22 05:17:32;;;;;;;4.68;2.55;;;;;;;14.12;100.00;98749.00;5025239;28;20044;-75
2023/07/22 05:19:58;;;;;;;4.72;2.83;;;;;;;14.02;100.00;98744.13;5030327;28;20029;-75
2023/07/22 05:22:23;;;;;;;4.93;2.42;;;;;;;14.02;100.00;98746.84;5034129;28;20116;-75
2023/07/22 05:24:49;;;;;;;4.45;2.60;;;;;;;14.10;100.00;98751.97;5022213;28;20735;-74
2023/07/22 05:27:14;;;;;;;6.43;2.60;;;;;;;14.13;100.00;98756.97;5029044;28;20498;-75
2023/07/22 05:29:40;;;;;;;4.03;2.70;;;;;;;14.50;100.00;98753.34;5031353;28;20037;-75
2023/07/22 05:32:06;;;;;;;3.65;2.33;;;;;;;14.84;100.00;98740.97;5029064;28;20021;-75
2023/07/22 05:34:31;;;;;;;4.43;2.15;;;;;;;15.11;100.00;98736.75;5034454;28;20075;-77
2023/07/22 05:36:56;;;;;;;5.35;2.30;;;;;;;15.50;100.00;98741.78;5027392;28;20029;-74
2023/07/22 05:39:21;;;;;;;4.22;1.67;;;;;;;15.78;100.00;98735.63;5028229;28;20040;-74
2023/07/22 05:41:47;;;;;;;2.92;2.00;;;;;;;16.11;100.00;98731.41;5034021;28;20099;-75
2023/07/22 05:44:12;;;;;;;4.10;2.05;;;;;;;16.36;100.00;98731.13;5023414;28;20040;-76
2023/07/22 05:46:38;;;;;;;3.17;1.88;;;;;;;16.42;100.00;98725.50;5025844;28;20116;-75
2023/07/22 05:49:03;;;;;;;4.57;2.33;;;;;;;16.41;100.00;98729.31;5023512;28;20054;-74
2023/07/22 05:51:29;;;;;;;3.03;1.73;;;;;;;16.71;100.00;98738.31;5024973;28;20056;-74
2023/07/22 05:53:54;;;;;;;3.58;2.20;;;;;;;16.72;100.00;98737.28;5023964;28;20032;-74
2023/07/22 05:56:19;;;;;;;4.50;2.45;;;;;;;16.89;100.00;98743.63;5023787;28;20402;-74
2023/07/22 05:58:44;;;;;;;4.60;2.20;;;;;;;17.17;100.00;98740.00;5024041;28;20105;-74
2023/07/22 06:01:11;;;;;;;5.82;2.30;;;;;;;17.48;100.00;98749.53;5022608;28;20029;-74
2023/07/22 06:03:37;;;;;;;7.15;2.55;;;;;;;17.35;100.00;98743.59;5033363;28;20035;-74
2023/07/22 06:06:02;;;;;;;5.22;2.22;;;;;;;17.45;100.00;98750.03;5031185;28;20379;-74
2023/07/22 06:08:27;;;;;;;3.35;2.15;;;;;;;17.73;100.00;98742.78;5031232;28;20380;-74
2023/07/22 06:10:53;;;;;;;3.08;1.92;;;;;;;17.50;100.00;98743.78;5027760;28;20024;-74
2023/07/22 06:13:18;;;;;;;7.03;2.30;;;;;;;17.78;100.00;98736.56;5027735;28;20024;-74
2023/07/22 06:15:43;;;;;;;6.97;2.75;;;;;;;17.93;100.00;98736.81;5032096;28;20096;-74
2023/07/22 06:18:09;;;;;;;5.13;2.30;;;;;;;18.05;100.00;98750.38;5032093;28;20017;-74
2023/07/22 06:20:35;;;;;;;3.67;1.83;;;;;;;18.23;100.00;98739.09;5033644;28;20056;-74
2023/07/22 06:23:02;;;;;;;3.65;1.55;;;;;;;18.41;100.00;98746.19;5025983;28;20436;-74
2023/07/22 06:25:27;;;;;;;3.85;1.90;;;;;;;18.77;100.00;98752.91;5032466;28;20441;-74
2023/07/22 06:27:54;;;;;;;8.93;1.80;;;;;;;18.86;100.00;98750.53;5028764;28;20029;-74
2023/07/22 06:30:19;;;;;;;2.10;1.52;;;;;;;18.90;100.00;98748.13;5025874;28;20061;-74
2023/07/22 06:32:45;;;;;;;2.45;1.40;;;;;;;18.94;100.00;98746.50;5027106;28;20608;-74
2023/07/22 06:35:10;;;;;;;9.90;1.73;;;;;;;19.10;100.00;98751.06;5023085;28;20021;-74
2023/07/22 06:37:35;;;;;;;4.28;1.58;;;;;;;19.26;100.00;98741.06;5027008;28;20021;-74
2023/07/22 06:40:02;;;;;;;4.18;1.60;;;;;;;19.82;100.00;98746.97;5031385;28;20028;-74
2023/07/22 06:42:27;;;;;;;3.17;1.65;;;;;;;20.06;100.00;98721.81;5027532;28;20116;-76
2023/07/22 06:44:52;;;;;;;3.33;1.42;;;;;;;22.15;100.00;98747.94;5030471;28;20121;-76
2023/07/22 06:47:18;;;;;;;5.88;1.60;;;;;;;23.71;100.00;98738.16;5029844;28;20502;-76
2023/07/22 06:49:43;;;;;;;2.83;1.70;;;;;;;25.97;91.63;98742.22;5032512;28;20105;-75
2023/07/22 06:52:08;;;;;;;3.47;1.48;;;;;;;27.23;77.08;98752.91;5030024;28;20087;-75
2023/07/22 06:54:35;;;;;;;5.18;1.63;;;;;;;27.19;70.91;98754.66;5025425;28;20032;-75
2023/07/22 06:57:00;;;;;;;4.20;1.67;;;;;;;27.47;67.39;98754.53;5031354;28;20168;-75
2023/07/22 06:59:27;;;;;;;2.65;1.45;;;;;;;26.66;70.57;98750.53;5028409;28;20084;-76
2023/07/22 07:01:52;;;;;;;2.75;1.40;;;;;;;27.58;66.83;98749.53;5016725;28;20057;-75
2023/07/22 07:04:18;;;;;;;2.45;1.70;;;;;;;27.70;64.53;98747.84;5021551;28;20038;-76
2023/07/22 07:06:43;;;;;;;2.85;1.40;;;;;;;28.42;63.03;98746.69;5026604;28;20053;-76
2023/07/22 07:09:08;;;;;;;2.45;1.52;;;;;;;28.29;63.41;98744.84;5031746;28;20025;-76
2023/07/22 07:11:34;;;;;;;3.20;1.60;;;;;;;28.71;60.72;98742.53;5029399;28;20022;-76
2023/07/22 07:13:59;;;;;;;3.38;1.48;;;;;;;29.27;57.87;98745.56;5026155;28;20049;-76
2023/07/22 07:16:31;;;;;;;4.65;1.90;;;;;;;29.45;57.47;98750.00;5030144;28;20049;-76
2023/07/22 07:18:57;;;;;;;2.15;1.35;;;;;;;29.68;56.60;98752.59;5028250;28;20487;-76
2023/07/22 07:21:23;;;;;;;2.33;1.30;;;;;;;29.66;53.81;98741.78;5021378;28;20035;-75
2023/07/22 07:23:49;;;;;;;2.35;1.55;;;;;;;29.34;56.27;98753.44;5022032;28;20083;-76
2023/07/22 07:26:15;;;;;;;1.67;1.23;;;;;;;29.07;54.11;98741.47;5035419;28;20028;-76
2023/07/22 07:28:40;;;;;;;3.22;1.30;;;;;;;29.08;54.84;98747.84;5030543;28;20025;-76
2023/07/22 07:31:06;;;;;;;3.08;1.50;;;;;;;30.86;51.73;98757.53;5026565;28;20049;-76
2023/07/22 07:33:32;;;;;;;2.20;1.20;;;;;;;31.87;49.49;98756.50;5061059;22;20095;-54
2023/07/22 07:35:57;;;;;;;2.08;1.40;;;;;;;31.12;48.92;98760.13;5033615;28;20022;-54
2023/07/22 07:38:23;;;;;;;3.78;1.50;;;;;;;31.23;47.86;98758.59;5023604;28;20499;-54
2023/07/22 07:40:53;;;;;;;3.40;1.67;;;;;;;31.05;49.02;98759.88;5029546;28;20489;-55
2023/07/22 07:43:19;;;;;;;5.00;1.45;;;;;;;30.92;49.54;98760.97;5025799;28;20088;-54
2023/07/22 07:45:44;;;;;;;1.67;1.20;;;;;;;29.77;52.43;98761.78;5042851;28;20353;-54
2023/07/22 07:48:09;;;;;;;2.65;1.30;;;;;;;29.63;51.37;98759.16;5035355;28;20025;-54
2023/07/22 07:50:35;;;;;;;4.00;1.30;;;;;;;30.13;50.96;98754.94;5037677;28;20025;-55
2023/07/22 07:53:00;;;;;;;5.13;1.30;;;;;;;30.93;48.18;98752.22;5022734;28;20072;-57
2023/07/22 07:55:26;;;;;;;2.03;1.35;;;;;;;31.25;48.63;98757.41;5030197;28;20033;-59
2023/07/22 07:57:51;;;;;;;3.28;1.20;;;;;;;31.91;46.59;98756.63;5014341;28;20037;-59
2023/07/22 08:00:17;;;;;;;3.00;1.30;;;;;;;32.56;45.51;98745.66;5022328;28;20041;-59
2023/07/22 08:02:42;;;;;;;4.20;1.40;;;;;;;31.94;45.53;98754.00;5048285;28;20029;-59
2023/07/22 08:05:08;;;;;;;2.90;1.27;;;;;;;32.26;44.99;98751.47;5028226;28;20029;-59
2023/07/22 08:07:34;;;;;;;2.67;1.40;;;;;;;33.42;43.59;98751.09;5048232;28;20136;-59
2023/07/22 08:10:00;;;;;;;5.05;1.77;;;;;;;34.46;40.48;98743.50;5027821;28;20017;-55
2023/07/22 08:12:26;;;;;;;5.20;1.33;;;;;;;34.68;40.62;98753.28;5031330;28;20044;-55
2023/07/22 08:14:53;;;;;;;4.78;1.10;;;;;;;33.28;42.33;98752.34;5041399;28;20021;-54
2023/07/22 08:17:18;;;;;;;3.38;1.50;;;;;;;32.81;42.54;98738.88;5027605;28;20021;-55
2023/07/22 08:19:44;;;;;;;3.05;1.10;;;;;;;33.67;43.03;98743.41;5045707;28;20389;-55
2023/07/22 08:22:09;;;;;;;2.42;1.25;;;;;;;34.77;40.56;98741.81;5031354;28;20052;-55
2023/07/22 08:24:34;;;;;;;2.42;1.40;;;;;;;34.71;39.77;98746.09;5029854;28;20111;-55
2023/07/22 08:27:00;;;;;;;2.58;1.20;;;;;;;34.69;39.71;98741.69;5045665;28;20385;-54
2023/07/22 08:29:25;;;;;;;3.78;1.33;;;;;;;34.99;39.49;98745.94;5031245;28;20372;-54
2023/07/22 08:31:51;;;;;;;4.70;1.63;;;;;;;35.61;38.66;98751.69;5044693;28;20376;-55
2023/07/22 08:34:16;;;;;;;3.22;1.30;;;;;;;35.42;37.42;98755.31;5029463;28;20025;-58
2023/07/22 08:36:42;;;;;;;2.13;1.20;;;;;;;35.42;37.11;98747.69;5031355;28;20033;-58
2023/07/22 08:39:07;;;;;;;1.98;1.05;;;;;;;36.56;35.19;98745.41;5045943;28;20112;-59
2023/07/22 08:41:33;;;;;;;1.77;0.90;;;;;;;35.09;37.81;98734.97;5032104;28;20080;-58
2023/07/22 08:44:00;;;;;;;2.85;1.30;;;;;;;35.66;36.51;98742.94;5046860;28;20480;-58
2023/07/22 08:46:30;;;;;;;2.08;1.10;;;;;;;37.62;33.30;98733.97;5027483;28;20032;-54
2023/07/22 08:48:58;;;;;;;1.63;1.00;;;;;;;36.35;34.31;98740.22;5026288;28;20021;-54
2023/07/22 08:51:28;;;;;;;2.33;1.17;;;;;;;38.08;34.31;98738.50;5048680;28;20412;-54
2023/07/22 08:53:56;;;;;;;2.88;1.17;;;;;;;37.64;32.87;98731.56;5048929;28;20034;-54
2023/07/22 08:56:25;;;;;;;2.88;1.10;;;;;;;37.55;33.55;98733.91;5026928;28;20033;-54
2023/07/22 08:58:51;;;;;;;;;;;;;;;38.09;32.31;98723.16;5049007;28;20564;-54
2023/07/22 09:01:16;;;;;;;2.08;1.20;;;;;;;36.47;33.47;98730.72;5043738;28;19917;-55
2023/07/22 09:03:42;;;;;;;2.92;0.93;;;;;;;33.78;36.37;98728.50;5048006;28;20385;-54
2023/07/22 09:06:07;;;;;;;4.45;1.23;;;;;;;35.00;35.86;98722.25;5044598;28;20481;-54
2023/07/22 09:08:33;;;;;;;5.30;1.23;;;;;;;37.44;34.06;98724.44;5030052;28;20115;-54
2023/07/22 09:10:59;;;;;;;2.15;1.40;;;;;;;36.98;34.68;98727.47;5046468;28;20398;-54
2023/07/22 09:13:26;;;;;;;1.67;1.10;;;;;;;37.16;33.26;98722.91;5032747;28;20113;-54
2023/07/22 09:15:53;;;;;;;1.88;1.08;;;;;;;38.69;32.68;98722.84;5025408;28;20769;-54
2023/07/22 09:18:18;;;;;;;1.38;1.00;;;;;;;38.21;32.93;98719.25;5023805;28;20036;-55
2023/07/22 09:20:44;;;;;;;2.53;1.10;;;;;;;40.35;32.59;98722.25;5041426;28;20021;-55
2023/07/22 09:23:11;;;;;;;1.92;1.00;;;;;;;42.26;30.22;98708.91;5026521;28;20440;-55
2023/07/22 09:25:36;;;;;;;2.33;0.70;;;;;;;41.12;30.54;98716.88;5025680;28;20032;-55
2023/07/22 09:28:01;;;;;;;2.50;1.27;;;;;;;40.69;31.26;98714.13;5044285;28;20450;-55
2023/07/22 09:30:33;;;;;;;2.70;1.02;;;;;;;40.83;30.48;98703.97;5028663;28;20763;-55
2023/07/22 09:33:00;;;;;;;2.72;0.90;;;;;;;39.61;29.45;98712.41;5041168;28;20080;-55
2023/07/22 09:35:28;;;;;;;2.35;0.90;;;;;;;41.04;29.37;98703.91;5048682;28;20068;-55
2023/07/22 09:37:54;;;;;;;0.90;0.73;;;;;;;42.71;28.88;98696.69;5045697;28;20112;-55
2023/07/22 09:40:22;;;;;;;6.20;1.00;;;;;;;41.56;28.50;98694.78;5024066;28;20164;-55
2023/07/22 09:42:52;;;;;;;2.08;0.90;;;;;;;38.43;30.38;98695.59;5026762;28;20030;-55
2023/07/22 09:45:20;;;;;;;2.00;0.88;;;;;;;34.90;33.77;98702.00;5045097;28;20067;-55
2023/07/22 09:47:47;;;;;;;;;;;;;;;33.14;36.87;98699.47;5030457;28;20032;-55
2023/07/22 09:50:21;;;;;;;1.73;0.98;;;;;;;32.13;37.87;98708.66;5043706;28;20502;-54
2023/07/22 09:52:47;;;;;;;1.83;0.93;;;;;;;30.63;40.01;98703.13;5026781;28;20386;-57
2023/07/22 09:55:22;;;;;;;1.45;1.00;;;;;;;30.01;40.33;98699.81;5044607;28;20029;-57
2023/07/22 09:57:50;;;;;;;2.20;1.05;;;;;;;29.53;42.63;98695.38;5024005;28;20032;-60
2023/07/22 10:00:17;;;;;;;;;;;;;;;29.47;42.71;98702.25;5015018;28;20084;-58
2023/07/22 10:02:44;;;;;;;3.15;0.98;;;;;;;31.76;39.30;98700.19;5027826;28;20314;-59
2023/07/22 10:05:18;;;;;;;2.58;0.98;;;;;;;32.79;38.06;98690.78;5042847;28;20083;-59
2023/07/22 10:07:49;;;;;;;3.20;1.00;;;;;;;33.50;36.97;98688.41;5046297;28;20128;-59
2023/07/22 10:10:20;;;;;;;1.58;1.00;;;;;;;33.40;36.48;98684.13;5025411;28;20072;-59
2023/07/22 10:12:46;;;;;;;2.42;1.15;;;;;;;32.29;37.89;98680.78;5028897;28;20029;-59
2023/07/22 10:15:13;;;;;;;1.40;0.90;;;;;;;31.34;39.74;98696.66;5026394;28;20075;-59
2023/07/22 10:17:41;;;;;;;2.42;1.00;;;;;;;32.19;37.60;98687.66;5028128;28;20024;-59
2023/07/22 10:20:15;;;;;;;1.00;0.80;;;;;;;35.31;36.14;98685.59;5050612;28;20017;-59
2023/07/22 10:22:44;;;;;;;2.00;0.88;;;;;;;34.86;35.97;98683.41;5027337;28;20458;-59
2023/07/22 10:25:11;;;;;;;1.90;0.90;;;;;;;32.64;36.79;98683.91;5031227;28;20045;-59
2023/07/22 10:27:39;;;;;;;1.75;0.80;;;;;;;31.50;38.28;98688.47;5037121;28;20424;-59
2023/07/22 10:30:06;;;;;;;2.42;1.15;;;;;;;32.44;37.95;98680.06;5045046;28;20029;-59
2023/07/22 10:32:44;;;;;;;1.42;0.88;;;;;;;31.27;38.50;98682.44;5025849;28;20038;-59
2023/07/22 10:35:33;;;;;;;1.33;0.73;;;;;;;32.14;38.53;98671.09;5048732;28;20025;-59
2023/07/22 10:38:12;;;;;;;4.32;0.68;;;;;;;31.83;37.92;98672.47;5031796;28;20075;-59
2023/07/22 10:40:51;;;;;;;1.88;1.10;;;;;;;32.01;37.26;98669.47;5029796;28;20034;-59
2023/07/22 10:43:17;;;;;;;;;;;;;;;32.96;37.76;98665.28;5028657;28;20035;-59
2023/07/22 10:45:52;;;;;;;1.48;0.95;;;;;;;33.23;37.56;98659.25;5030644;28;19917;-59
2023/07/22 10:48:18;;;;;;;1.55;1.08;;;;;;;32.83;38.10;98662.84;5023964;28;20376;-59
2023/07/22 10:50:46;;;;;;;2.17;0.88;;;;;;;31.35;38.77;98665.56;5028247;28;20105;-59
2023/07/22 10:53:29;;;;;;;2.87;0.73;;;;;;;31.40;38.11;98658.97;5029433;28;20140;-59
2023/07/22 10:56:16;;;;;;;2.72;0.80;;;;;;;32.15;36.86;98660.72;5030723;28;20032;-59
2023/07/22 10:58:45;;;;;;;3.63;0.88;;;;;;;30.30;38.69;98667.53;5029395;28;20048;-59
2023/07/22 11:01:25;;;;;;;1.45;1.00;;;;;;;30.77;39.68;98662.59;5027556;28;20449;-59
2023/07/22 11:04:31;;;;;;;1.33;0.75;;;;;;;31.05;39.51;98659.28;5046670;28;20148;-59
2023/07/22 11:06:58;;;;;;;1.48;0.80;;;;;;;30.46;39.30;98660.22;5041514;28;20029;-59
2023/07/22 11:09:26;;;;;;;2.05;1.20;;;;;;;30.14;39.84;98656.94;5045101;28;20029;-59
2023/07/22 11:11:59;;;;;;;1.73;0.93;;;;;;;28.41;41.41;98658.81;5028583;28;20532;-59
2023/07/22 11:14:26;;;;;;;2.92;0.98;;;;;;;28.90;41.45;98649.50;5029946;28;20091;-59
2023/07/22 11:16:52;;;;;;;6.43;0.90;;;;;;;29.86;39.75;98650.97;5027976;28;20380;-59
2023/07/22 11:19:20;;;;;;;0.90;0.68;;;;;;;32.05;37.05;98640.44;5045192;28;20029;-59
2023/07/22 11:21:47;;;;;;;1.45;1.02;;;;;;;33.15;35.47;98635.78;5043721;28;20030;-59
2023/07/22 11:24:13;;;;;;;1.83;0.90;;;;;;;34.09;34.50;98623.06;5027114;28;20028;-59
2023/07/22 11:26:40;;;;;;;1.52;0.90;;;;;;;33.27;34.76;98621.69;5050782;28;20025;-59